Time;durP1;ratioP1;P1;durP2;ratioP2;P2;SDS_P1;SDS_P2;PMS_P1;PMS_P2;Temp;Humidity;BMP_temperature;BMP_pressure;BME280_temperature;BME280_humidity;BME280_pressure;Samples;Min_cycle;Max_cycle;Signal;HPM_P1;HPM_P2
2021/04/07 00:00:25;;;;;;;5.22;3.50;;;4.10;99.90;;;;;;4995107;28;20026;-83
2021/04/07 00:02:51;;;;;;;5.82;3.45;;;4.30;99.90;;;;;;4988538;28;20140;-84
2021/04/07 00:05:26;;;;;;;6.97;3.50;;;4.10;99.90;;;;;;4995614;28;20113;-84
2021/04/07 00:07:54;;;;;;;4.47;3.17;;;4.20;99.90;;;;;;5014688;28;20030;-84
2021/04/07 00:10:21;;;;;;;6.05;3.45;;;3.90;99.90;;;;;;4997099;28;20026;-84
2021/04/07 00:12:47;;;;;;;6.10;3.30;;;4.20;99.90;;;;;;5013329;28;20030;-84
2021/04/07 00:15:17;;;;;;;6.18;3.80;;;4.70;99.90;;;;;;5014193;28;20026;-83
2021/04/07 00:17:43;;;;;;;5.57;3.25;;;4.60;99.90;;;;;;5013716;28;20109;-84
2021/04/07 00:20:11;;;;;;;8.77;3.72;;;4.50;99.90;;;;;;5014130;28;20157;-84
2021/04/07 00:22:36;;;;;;;7.00;3.75;;;4.80;99.90;;;;;;5014369;28;20034;-84
2021/04/07 00:25:03;;;;;;;7.97;3.42;;;5.20;99.90;;;;;;4996629;28;20029;-84
2021/04/07 00:27:28;;;;;;;6.90;3.50;;;4.70;99.90;;;;;;5012131;28;20030;-84
2021/04/07 00:29:54;;;;;;;6.30;3.60;;;4.50;99.90;;;;;;5014025;28;20021;-84
2021/04/07 00:32:20;;;;;;;5.60;3.55;;;4.50;99.90;;;;;;4996406;28;20038;-84
2021/04/07 00:34:46;;;;;;;9.55;3.90;;;4.40;99.90;;;;;;4996443;28;20029;-83
2021/04/07 00:37:11;;;;;;;6.35;3.40;;;4.40;99.90;;;;;;4996534;28;20030;-84
2021/04/07 00:39:37;;;;;;;5.18;3.05;;;4.50;99.90;;;;;;5014148;28;20053;-83
2021/04/07 00:42:04;;;;;;;5.78;3.22;;;4.50;99.90;;;;;;5012868;28;20686;-83
2021/04/07 00:44:30;;;;;;;5.85;3.00;;;4.60;99.90;;;;;;5014076;28;20014;-84
2021/04/07 00:46:56;;;;;;;4.85;2.88;;;4.70;99.90;;;;;;4995637;28;20096;-84
2021/04/07 00:49:22;;;;;;;4.82;2.95;;;4.70;99.90;;;;;;4995332;28;20114;-84
2021/04/07 00:51:48;;;;;;;6.15;3.10;;;4.80;99.90;;;;;;5013158;28;20034;-84
2021/04/07 00:54:14;;;;;;;5.32;3.03;;;4.80;99.90;;;;;;4995540;28;20116;-84
2021/04/07 00:56:40;;;;;;;10.75;3.80;;;5.00;99.90;;;;;;5010806;28;20121;-84
2021/04/07 00:59:06;;;;;;;6.38;3.10;;;4.70;99.90;;;;;;4995405;28;20120;-84
2021/04/07 01:01:32;;;;;;;7.10;3.63;;;4.70;99.90;;;;;;4994987;28;20029;-84
2021/04/07 01:03:58;;;;;;;4.57;3.30;;;4.70;99.90;;;;;;5012805;28;20573;-84
2021/04/07 01:06:25;;;;;;;7.05;3.30;;;4.60;99.90;;;;;;5012935;28;20075;-83
2021/04/07 01:08:51;;;;;;;5.72;3.08;;;4.20;99.90;;;;;;5012511;28;20449;-83
2021/04/07 01:11:18;;;;;;;6.05;3.20;;;4.30;99.90;;;;;;5011851;28;20076;-83
2021/04/07 01:13:43;;;;;;;5.38;3.85;;;4.20;99.90;;;;;;5012884;28;20025;-84
2021/04/07 01:16:09;;;;;;;6.22;3.45;;;4.20;99.90;;;;;;5012545;28;20040;-83
2021/04/07 01:18:35;;;;;;;6.25;3.50;;;4.20;99.90;;;;;;5012144;28;20026;-84
2021/04/07 01:21:01;;;;;;;4.55;3.10;;;4.30;99.90;;;;;;5012706;28;20397;-83
2021/04/07 01:23:28;;;;;;;6.70;3.40;;;4.30;99.90;;;;;;4995255;28;20088;-84
2021/04/07 01:25:53;;;;;;;4.93;3.50;;;4.10;99.90;;;;;;4993919;28;20468;-83
2021/04/07 01:28:20;;;;;;;4.53;3.13;;;4.10;99.90;;;;;;4992826;28;20026;-83
2021/04/07 01:30:46;;;;;;;6.82;3.67;;;4.10;99.90;;;;;;4992732;28;20030;-83
2021/04/07 01:33:21;;;;;;;5.70;3.38;;;4.00;99.90;;;;;;4993246;28;20033;-83
2021/04/07 01:35:47;;;;;;;5.40;3.55;;;4.00;99.90;;;;;;4993277;28;20045;-83
2021/04/07 01:38:12;;;;;;;4.80;3.10;;;3.90;99.90;;;;;;5012497;28;20026;-84
2021/04/07 01:40:41;;;;;;;5.72;3.05;;;3.80;99.90;;;;;;4993841;28;20034;-84
2021/04/07 01:43:08;;;;;;;4.60;3.28;;;4.00;99.90;;;;;;5012355;28;20030;-83
2021/04/07 01:45:34;;;;;;;5.03;3.30;;;4.10;99.90;;;;;;4994276;28;20060;-84
2021/04/07 01:48:01;;;;;;;3.75;3.05;;;4.20;99.90;;;;;;5012451;28;20045;-84
2021/04/07 01:50:27;;;;;;;8.27;3.10;;;4.30;99.90;;;;;;5012189;28;20095;-84
2021/04/07 01:52:53;;;;;;;5.22;3.08;;;4.30;99.90;;;;;;4994723;28;20022;-84
2021/04/07 01:55:18;;;;;;;4.80;2.60;;;4.30;99.90;;;;;;5011341;28;20065;-83
2021/04/07 01:57:44;;;;;;;5.07;2.63;;;4.30;99.90;;;;;;4994345;28;20493;-84
2021/04/07 02:00:11;;;;;;;4.80;2.60;;;4.20;99.90;;;;;;5011760;28;20026;-83
2021/04/07 02:02:37;;;;;;;3.97;2.42;;;4.20;99.90;;;;;;5012127;28;20443;-84
2021/04/07 02:05:05;;;;;;;4.95;2.53;;;4.00;99.90;;;;;;4994610;28;20076;-84
2021/04/07 02:07:30;;;;;;;3.85;2.70;;;3.80;99.90;;;;;;5012422;28;20026;-84
2021/04/07 02:10:00;;;;;;;3.25;2.40;;;4.10;99.90;;;;;;4992563;28;20116;-83
2021/04/07 02:12:26;;;;;;;3.38;2.40;;;4.00;99.90;;;;;;5012256;28;20056;-84
2021/04/07 02:14:51;;;;;;;3.15;2.35;;;3.90;99.90;;;;;;5012045;28;20033;-84
2021/04/07 02:17:17;;;;;;;2.80;2.30;;;4.20;99.90;;;;;;4994569;28;20026;-84
2021/04/07 02:19:42;;;;;;;3.17;2.33;;;4.00;99.90;;;;;;5010600;28;20389;-84
2021/04/07 02:22:10;;;;;;;4.28;2.67;;;4.10;99.90;;;;;;5012191;28;20100;-84
2021/04/07 02:24:36;;;;;;;3.75;2.38;;;4.30;99.90;;;;;;4994521;28;20026;-84
2021/04/07 02:27:11;;;;;;;5.25;2.58;;;4.30;99.90;;;;;;5012034;28;20030;-84
2021/04/07 02:29:38;;;;;;;3.00;2.60;;;4.40;99.90;;;;;;5013842;28;20041;-84
2021/04/07 02:32:04;;;;;;;6.55;2.67;;;4.40;99.90;;;;;;4998289;28;20120;-84
2021/04/07 02:34:31;;;;;;;2.40;2.20;;;4.40;99.90;;;;;;4996928;28;20038;-84
2021/04/07 02:36:57;;;;;;;3.38;2.60;;;4.30;99.90;;;;;;5015547;28;20029;-84
2021/04/07 02:39:23;;;;;;;2.88;2.38;;;4.30;99.90;;;;;;4997662;28;20061;-84
2021/04/07 02:41:48;;;;;;;3.25;2.25;;;4.20;99.90;;;;;;5015675;28;20034;-84
2021/04/07 02:44:14;;;;;;;4.07;2.72;;;4.10;99.90;;;;;;4997626;28;20026;-84
2021/04/07 02:46:40;;;;;;;5.13;2.60;;;3.80;99.90;;;;;;5015820;28;20026;-84
2021/04/07 02:49:05;;;;;;;4.47;2.42;;;3.80;99.90;;;;;;5014113;28;20049;-84
2021/04/07 02:51:31;;;;;;;3.65;2.63;;;3.70;99.90;;;;;;5015440;28;20026;-84
2021/04/07 02:53:56;;;;;;;4.38;2.42;;;3.70;99.90;;;;;;4998688;28;20464;-84
2021/04/07 02:56:22;;;;;;;2.83;2.50;;;3.50;99.90;;;;;;4995658;28;20514;-84
2021/04/07 02:58:48;;;;;;;2.47;2.17;;;3.80;99.90;;;;;;4995310;28;20383;-84
2021/04/07 03:01:13;;;;;;;4.63;2.85;;;3.40;99.90;;;;;;5006237;28;20393;-84
2021/04/07 03:03:39;;;;;;;3.42;2.50;;;3.30;99.90;;;;;;4996430;28;20050;-84
2021/04/07 03:06:05;;;;;;;4.00;2.65;;;3.20;99.90;;;;;;4997382;28;20018;-84
2021/04/07 03:08:30;;;;;;;4.13;2.40;;;3.20;99.90;;;;;;5015050;28;20029;-84
2021/04/07 03:10:56;;;;;;;3.10;2.50;;;3.20;99.90;;;;;;5015231;28;20053;-84
2021/04/07 03:13:21;;;;;;;2.92;2.33;;;3.20;99.90;;;;;;4996839;28;20057;-84
2021/04/07 03:15:47;;;;;;;4.63;2.33;;;3.10;99.90;;;;;;5015127;28;20034;-84
2021/04/07 03:18:13;;;;;;;2.70;2.40;;;3.10;99.90;;;;;;4996148;28;20048;-84
2021/04/07 03:20:39;;;;;;;5.00;2.60;;;2.90;99.90;;;;;;4997255;28;20029;-84
2021/04/07 03:23:04;;;;;;;2.97;2.17;;;2.90;99.90;;;;;;4997084;28;20068;-84
2021/04/07 03:25:30;;;;;;;3.03;2.40;;;2.80;99.90;;;;;;4996658;28;20042;-83
2021/04/07 03:27:55;;;;;;;3.90;2.40;;;3.20;99.90;;;;;;4997196;28;20486;-84
2021/04/07 03:30:21;;;;;;;3.50;2.53;;;2.80;99.90;;;;;;5014558;28;20033;-84
2021/04/07 03:32:47;;;;;;;4.60;2.80;;;2.80;99.90;;;;;;5013706;28;20038;-84
2021/04/07 03:35:12;;;;;;;4.72;2.90;;;2.70;99.90;;;;;;5014592;28;20100;-84
2021/04/07 03:37:38;;;;;;;5.47;3.40;;;2.70;99.90;;;;;;4997028;28;20033;-84
2021/04/07 03:40:04;;;;;;;4.95;3.10;;;2.80;99.90;;;;;;4996122;28;20077;-84
2021/04/07 03:42:30;;;;;;;5.82;3.20;;;2.80;99.90;;;;;;4985272;28;20023;-84
2021/04/07 03:44:55;;;;;;;5.95;2.80;;;2.80;99.90;;;;;;4977289;28;20517;-84
2021/04/07 03:47:21;;;;;;;3.63;3.22;;;2.90;99.90;;;;;;4985926;28;20132;-84
2021/04/07 03:49:46;;;;;;;4.93;3.30;;;2.90;99.90;;;;;;4996587;28;20037;-84
2021/04/07 03:52:12;;;;;;;5.13;2.70;;;2.80;99.90;;;;;;5014239;28;20026;-84
2021/04/07 03:54:39;;;;;;;3.45;2.80;;;2.70;99.90;;;;;;5014125;28;20401;-84
2021/04/07 03:57:05;;;;;;;3.35;2.25;;;3.00;99.90;;;;;;4996156;28;20041;-84
2021/04/07 03:59:31;;;;;;;3.38;2.78;;;2.90;99.90;;;;;;4996212;28;20021;-84
2021/04/07 04:01:56;;;;;;;3.60;2.67;;;2.90;99.90;;;;;;4995415;28;20038;-84
2021/04/07 04:04:22;;;;;;;3.17;2.28;;;2.90;99.90;;;;;;5014127;28;20490;-84
2021/04/07 04:06:48;;;;;;;3.40;2.30;;;2.90;99.90;;;;;;5014026;28;20034;-84
2021/04/07 04:09:14;;;;;;;3.70;2.78;;;3.00;99.90;;;;;;5013514;28;20446;-84
2021/04/07 04:11:40;;;;;;;3.33;2.45;;;2.90;99.90;;;;;;5013939;28;20180;-84
2021/04/07 04:14:06;;;;;;;4.70;2.58;;;2.80;99.90;;;;;;4996602;28;20026;-84
2021/04/07 04:16:32;;;;;;;5.10;2.67;;;2.70;99.90;;;;;;5012593;28;20402;-84
2021/04/07 04:18:57;;;;;;;4.38;2.78;;;2.60;99.90;;;;;;4996139;28;20086;-84
2021/04/07 04:21:23;;;;;;;3.53;2.50;;;2.70;99.90;;;;;;4995864;28;20018;-84
2021/04/07 04:23:48;;;;;;;3.35;2.63;;;2.60;99.90;;;;;;4995893;28;20026;-84
2021/04/07 04:26:14;;;;;;;3.10;2.80;;;2.60;99.90;;;;;;5013735;28;20026;-84
2021/04/07 04:28:40;;;;;;;4.03;2.63;;;2.50;99.90;;;;;;5013694;28;20441;-83
2021/04/07 04:31:05;;;;;;;4.85;2.97;;;2.50;99.90;;;;;;4994183;28;20472;-84
2021/04/07 04:33:31;;;;;;;4.68;3.15;;;2.90;99.90;;;;;;5013358;28;20022;-84
2021/04/07 04:35:58;;;;;;;4.85;2.92;;;2.40;99.90;;;;;;5013371;28;20493;-83
2021/04/07 04:38:26;;;;;;;4.13;2.90;;;2.40;99.90;;;;;;5013017;28;20424;-84
2021/04/07 04:40:52;;;;;;;4.70;2.80;;;2.40;99.90;;;;;;5013435;28;20029;-84
2021/04/07 04:43:19;;;;;;;5.00;2.72;;;2.30;99.90;;;;;;5010289;28;20393;-83
2021/04/07 04:45:44;;;;;;;5.85;3.72;;;2.30;99.90;;;;;;4997781;28;20017;-84
2021/04/07 04:48:10;;;;;;;6.35;3.30;;;2.40;99.90;;;;;;5013532;28;20894;-84
2021/04/07 04:50:36;;;;;;;4.78;3.20;;;2.30;99.90;;;;;;4994405;28;20033;-89
2021/04/07 04:53:03;;;;;;;4.72;3.28;;;2.70;99.90;;;;;;4997577;28;20517;-83
2021/04/07 04:55:29;;;;;;;4.35;3.17;;;2.30;99.90;;;;;;5013041;28;20045;-84
2021/04/07 04:57:56;;;;;;;3.65;3.10;;;2.20;99.90;;;;;;5012652;28;20029;-84
2021/04/07 05:00:22;;;;;;;5.03;3.30;;;2.20;99.90;;;;;;4992324;28;20512;-83
2021/04/07 05:02:48;;;;;;;5.60;3.45;;;2.10;99.90;;;;;;5012138;28;20421;-84
2021/04/07 05:05:15;;;;;;;5.63;3.10;;;2.10;99.90;;;;;;4994951;28;20030;-84
2021/04/07 05:07:41;;;;;;;4.90;3.20;;;2.20;99.90;;;;;;4993853;28;20490;-84
2021/04/07 05:10:07;;;;;;;4.85;3.25;;;2.20;99.90;;;;;;4994908;28;20026;-84
2021/04/07 05:12:33;;;;;;;5.93;3.15;;;2.20;99.90;;;;;;4994872;28;20108;-83
2021/04/07 05:14:58;;;;;;;5.82;3.58;;;2.40;99.90;;;;;;4992978;28;20116;-83
2021/04/07 05:17:24;;;;;;;5.13;3.15;;;2.20;99.90;;;;;;5012631;28;20026;-83
2021/04/07 05:19:50;;;;;;;5.55;3.33;;;2.30;99.90;;;;;;5012664;28;20025;-84
2021/04/07 05:22:16;;;;;;;4.05;3.13;;;2.20;99.90;;;;;;4994032;28;20025;-84
2021/04/07 05:24:42;;;;;;;4.47;3.50;;;2.20;99.90;;;;;;5011839;28;20033;-84
2021/04/07 05:27:07;;;;;;;5.65;3.70;;;2.30;99.90;;;;;;5012342;28;20447;-84
2021/04/07 05:29:33;;;;;;;3.67;3.35;;;2.30;99.90;;;;;;5011518;28;20064;-84
2021/04/07 05:31:59;;;;;;;7.93;4.15;;;2.30;99.90;;;;;;4994574;28;20021;-84
2021/04/07 05:34:25;;;;;;;7.10;3.40;;;2.30;99.90;;;;;;5012131;28;20576;-84
2021/04/07 05:36:50;;;;;;;5.00;3.80;;;2.30;99.90;;;;;;4994084;28;20060;-83
2021/04/07 05:39:16;;;;;;;6.30;3.50;;;2.30;99.90;;;;;;5012216;28;20049;-84
2021/04/07 05:41:42;;;;;;;6.75;3.75;;;2.30;99.90;;;;;;5011971;28;20421;-84
2021/04/07 05:44:10;;;;;;;7.47;3.80;;;2.30;99.90;;;;;;4994540;28;20501;-84
2021/04/07 05:46:36;;;;;;;5.40;4.03;;;2.40;99.90;;;;;;5002338;28;20026;-84
2021/04/07 05:49:01;;;;;;;6.22;3.75;;;2.40;99.90;;;;;;5010804;28;20026;-84
2021/04/07 05:51:27;;;;;;;5.72;4.10;;;2.30;99.90;;;;;;5022760;28;20026;-84
2021/04/07 05:53:53;;;;;;;7.25;4.20;;;2.20;99.90;;;;;;5011957;28;20037;-84
2021/04/07 05:56:18;;;;;;;6.50;4.10;;;2.70;99.90;;;;;;5011860;28;20025;-84
2021/04/07 05:58:44;;;;;;;5.30;4.35;;;2.40;99.90;;;;;;5011215;28;20103;-84
2021/04/07 06:01:09;;;;;;;5.40;4.63;;;2.40;99.90;;;;;;5012023;28;20080;-84
2021/04/07 06:03:35;;;;;;;5.78;4.22;;;2.90;99.90;;;;;;4994551;28;20050;-85
2021/04/07 06:06:01;;;;;;;6.20;4.35;;;2.60;99.90;;;;;;4998330;28;20026;-84
2021/04/07 06:08:26;;;;;;;6.20;4.05;;;2.60;99.90;;;;;;5015866;28;20038;-84
2021/04/07 06:10:52;;;;;;;6.55;4.45;;;2.50;99.90;;;;;;5015887;28;20034;-84
2021/04/07 06:13:18;;;;;;;8.85;4.13;;;2.70;99.90;;;;;;5014274;28;20032;-84
2021/04/07 06:15:45;;;;;;;8.57;4.70;;;2.70;99.90;;;;;;5012363;28;20026;-85
2021/04/07 06:18:13;;;;;;;6.47;4.80;;;2.80;99.90;;;;;;5005765;28;20048;-84
2021/04/07 06:20:43;;;;;;;5.18;4.20;;;2.80;99.90;;;;;;5029740;28;20022;-84
2021/04/07 06:23:10;;;;;;;5.82;4.95;;;2.90;99.90;;;;;;5015931;28;20144;-84
2021/04/07 06:25:37;;;;;;;7.07;4.50;;;2.90;99.90;;;;;;5015512;28;20505;-84
2021/04/07 06:28:06;;;;;;;7.75;5.05;;;3.00;99.90;;;;;;5014288;28;20400;-84
2021/04/07 06:30:48;;;;;;;7.60;5.18;;;2.90;99.90;;;;;;5015293;28;20088;-85
2021/04/07 06:33:31;;;;;;;7.05;4.60;;;2.90;99.90;;;;;;4998289;28;20034;-85
2021/04/07 06:35:58;;;;;;;9.15;4.88;;;3.00;99.90;;;;;;5015969;28;20072;-87
2021/04/07 06:38:26;;;;;;;5.78;4.65;;;3.10;99.90;;;;;;4997459;28;20041;-83
2021/04/07 06:40:53;;;;;;;6.13;4.50;;;3.40;99.90;;;;;;5015200;28;20022;-83
2021/04/07 06:43:21;;;;;;;9.20;5.00;;;3.60;99.90;;;;;;4997009;28;20022;-83
2021/04/07 06:45:47;;;;;;;6.50;4.55;;;3.80;99.90;;;;;;5014704;28;20084;-83
2021/04/07 06:48:14;;;;;;;6.97;4.75;;;4.10;99.90;;;;;;4990403;28;20495;-84
2021/04/07 06:50:41;;;;;;;5.75;4.40;;;4.40;99.90;;;;;;4997182;28;20037;-84
2021/04/07 06:53:08;;;;;;;9.18;4.30;;;4.60;99.90;;;;;;4997579;28;20029;-83
2021/04/07 06:55:35;;;;;;;6.30;4.10;;;5.00;99.90;;;;;;5015276;28;20022;-84
2021/04/07 06:58:02;;;;;;;5.15;4.50;;;5.00;99.90;;;;;;5014227;28;20052;-84
2021/04/07 07:00:28;;;;;;;6.70;4.30;;;4.80;99.90;;;;;;4997351;28;20401;-84
2021/04/07 07:03:01;;;;;;;6.47;4.38;;;4.60;99.90;;;;;;5014880;28;20050;-84
2021/04/07 07:05:27;;;;;;;6.15;4.57;;;4.50;99.90;;;;;;5014859;28;20033;-84
2021/04/07 07:08:02;;;;;;;7.22;4.45;;;4.40;99.90;;;;;;5015081;28;20038;-85
2021/04/07 07:10:37;;;;;;;5.65;4.15;;;4.40;99.90;;;;;;4997563;28;20022;-85
2021/04/07 07:13:04;;;;;;;4.97;4.47;;;4.70;99.90;;;;;;4996067;28;20079;-85
2021/04/07 07:15:30;;;;;;;6.20;4.25;;;4.60;99.90;;;;;;4996255;28;20034;-86
2021/04/07 07:17:55;;;;;;;7.43;4.45;;;4.70;99.90;;;;;;4996754;28;20040;-85
2021/04/07 07:20:36;;;;;;;6.43;4.30;;;4.50;99.90;;;;;;5013805;28;20089;-85
2021/04/07 07:23:02;;;;;;;7.70;4.60;;;4.30;99.90;;;;;;5014797;28;20026;-86
2021/04/07 07:25:29;;;;;;;7.55;4.47;;;4.30;99.90;;;;;;5014409;28;20028;-85
2021/04/07 07:28:00;;;;;;;4.70;4.20;;;4.60;99.90;;;;;;5013798;28;20030;-85
2021/04/07 07:30:35;;;;;;;5.78;4.25;;;4.50;99.90;;;;;;5014823;28;20409;-86
2021/04/07 07:33:11;;;;;;;6.75;4.40;;;5.10;99.90;;;;;;5013421;28;20233;-84
2021/04/07 07:35:37;;;;;;;6.32;4.75;;;5.60;99.90;;;;;;5013788;28;20064;-85
2021/04/07 07:38:02;;;;;;;5.47;4.60;;;5.70;99.90;;;;;;5014027;28;20477;-85
2021/04/07 07:40:28;;;;;;;9.48;5.75;;;5.60;99.90;;;;;;4996131;28;20022;-85
2021/04/07 07:42:54;;;;;;;4.75;4.00;;;6.10;99.90;;;;;;4995621;28;20494;-84
2021/04/07 07:45:27;;;;;;;9.05;4.40;;;5.80;99.90;;;;;;5014464;28;20026;-84
2021/04/07 07:48:12;;;;;;;7.15;4.50;;;5.70;99.90;;;;;;5014382;28;20515;-84
2021/04/07 07:50:40;;;;;;;5.85;4.53;;;5.40;99.90;;;;;;5014029;28;20038;-84
2021/04/07 07:53:22;;;;;;;7.70;4.72;;;5.50;99.90;;;;;;5014032;28;20026;-84
2021/04/07 07:55:53;;;;;;;7.65;4.13;;;5.60;99.90;;;;;;5014220;28;20026;-84
2021/04/07 07:58:27;;;;;;;5.15;4.50;;;5.50;99.90;;;;;;5012025;28;20048;-83
2021/04/07 08:01:14;;;;;;;7.03;4.53;;;5.90;99.90;;;;;;4996489;28;20022;-84
2021/04/07 08:03:39;;;;;;;5.35;3.80;;;6.20;99.90;;;;;;4996425;28;20057;-84
2021/04/07 08:06:05;;;;;;;6.28;4.35;;;6.40;99.90;;;;;;4996514;28;20022;-84
2021/04/07 08:08:31;;;;;;;5.03;4.25;;;5.90;99.90;;;;;;5013986;28;20026;-84
2021/04/07 08:10:57;;;;;;;7.60;5.38;;;6.60;99.90;;;;;;5014146;28;20034;-84
2021/04/07 08:13:29;;;;;;;4.55;3.63;;;7.20;99.90;;;;;;5012633;28;20034;-84
2021/04/07 08:15:57;;;;;;;6.03;3.30;;;7.10;99.90;;;;;;5013803;28;20026;-84
2021/04/07 08:18:24;;;;;;;4.85;3.42;;;7.40;99.90;;;;;;5013722;28;20489;-84
2021/04/07 08:20:50;;;;;;;6.30;4.05;;;7.30;99.90;;;;;;4996330;28;20029;-84
2021/04/07 08:23:18;;;;;;;3.40;3.00;;;7.60;99.90;;;;;;5013626;28;20022;-84
2021/04/07 08:25:51;;;;;;;6.68;3.60;;;7.70;99.90;;;;;;4994960;28;20032;-84
2021/04/07 08:28:17;;;;;;;5.43;3.22;;;7.90;99.90;;;;;;4992814;28;20811;-84
2021/04/07 08:30:44;;;;;;;3.17;2.88;;;7.50;99.90;;;;;;4993796;28;20113;-84
2021/04/07 08:33:10;;;;;;;6.70;3.78;;;7.30;99.90;;;;;;4976595;28;20030;-84
2021/04/07 08:35:35;;;;;;;4.25;2.88;;;7.40;99.90;;;;;;4994043;28;20462;-84
2021/04/07 08:38:05;;;;;;;4.47;2.78;;;7.40;99.90;;;;;;4976428;28;20062;-84
2021/04/07 08:40:44;;;;;;;4.95;3.20;;;7.50;99.90;;;;;;4994767;28;20025;-84
2021/04/07 08:43:12;;;;;;;5.28;3.25;;;8.20;99.90;;;;;;4995149;28;20041;-84
2021/04/07 08:45:41;;;;;;;4.68;2.80;;;8.20;99.90;;;;;;5013081;28;20386;-84
2021/04/07 08:48:17;;;;;;;3.08;2.55;;;7.70;99.90;;;;;;4995873;28;20038;-84
2021/04/07 08:50:43;;;;;;;6.75;2.90;;;7.60;99.90;;;;;;5013265;28;20026;-84
2021/04/07 08:53:15;;;;;;;3.92;2.30;;;7.60;99.90;;;;;;4995630;28;20030;-84
2021/04/07 08:55:50;;;;;;;4.10;2.30;;;7.70;99.90;;;;;;5011958;28;20032;-84
2021/04/07 08:58:25;;;;;;;3.80;2.50;;;8.00;99.90;;;;;;4995652;28;20041;-84
2021/04/07 09:00:56;;;;;;;5.63;2.72;;;7.80;99.90;;;;;;4995399;28;20100;-84
2021/04/07 09:03:30;;;;;;;4.50;2.90;;;7.70;99.90;;;;;;4995320;28;20521;-84
2021/04/07 09:05:56;;;;;;;5.25;3.75;;;8.00;99.90;;;;;;5013283;28;20026;-84
2021/04/07 09:08:24;;;;;;;4.07;2.50;;;8.10;99.90;;;;;;5012819;28;20041;-84
2021/04/07 09:10:51;;;;;;;4.07;2.63;;;7.90;99.90;;;;;;5011685;28;20481;-85
2021/04/07 09:13:21;;;;;;;4.35;2.65;;;8.70;99.90;;;;;;5012331;28;20117;-84
2021/04/07 09:16:01;;;;;;;5.60;2.85;;;8.80;99.90;;;;;;4994790;28;20033;-84
2021/04/07 09:18:43;;;;;;;4.40;2.30;;;8.70;99.90;;;;;;5012871;28;20036;-84
2021/04/07 09:21:15;;;;;;;5.25;2.42;;;8.30;99.90;;;;;;5011698;28;20105;-84
2021/04/07 09:23:43;;;;;;;3.78;2.50;;;8.20;99.90;;;;;;5012604;28;20037;-84
2021/04/07 09:26:13;;;;;;;6.05;2.47;;;8.90;99.90;;;;;;5012769;28;20045;-85
2021/04/07 09:28:48;;;;;;;3.05;2.25;;;8.60;99.90;;;;;;4994866;28;20033;-85
2021/04/07 09:31:19;;;;;;;4.45;2.58;;;8.40;99.90;;;;;;5012679;28;20105;-85
2021/04/07 09:33:47;;;;;;;3.67;2.33;;;8.20;99.90;;;;;;5012688;28;20122;-85
2021/04/07 09:36:14;;;;;;;5.00;2.40;;;7.90;99.90;;;;;;5011756;28;20022;-85
2021/04/07 09:38:51;;;;;;;2.85;2.25;;;8.50;99.90;;;;;;4994228;28;20036;-84
2021/04/07 09:41:25;;;;;;;4.20;2.10;;;8.70;99.90;;;;;;5012826;28;20026;-85
2021/04/07 09:43:55;;;;;;;4.63;2.13;;;8.40;99.90;;;;;;5012231;28;20022;-85
2021/04/07 09:46:21;;;;;;;4.97;2.20;;;8.20;99.90;;;;;;5012682;28;20508;-85
2021/04/07 09:48:48;;;;;;;6.32;2.63;;;8.80;99.90;;;;;;4995234;28;20485;-85
2021/04/07 09:51:17;;;;;;;2.97;1.80;;;9.20;99.90;;;;;;5011502;28;20034;-85
2021/04/07 09:53:43;;;;;;;4.63;2.30;;;9.30;99.90;;;;;;5012405;28;20018;-85
2021/04/07 09:56:09;;;;;;;6.40;2.40;;;9.20;99.90;;;;;;4995029;28;20033;-85
2021/04/07 09:58:46;;;;;;;4.32;2.70;;;9.30;99.90;;;;;;5012142;28;20105;-85
2021/04/07 10:01:14;;;;;;;2.80;1.75;;;9.40;99.90;;;;;;5012557;28;20050;-85
2021/04/07 10:03:57;;;;;;;2.92;2.10;;;9.60;99.90;;;;;;4994563;28;20050;-85
2021/04/07 10:06:25;;;;;;;3.63;2.17;;;12.40;99.90;;;;;;5009049;28;20437;-85
2021/04/07 10:09:08;;;;;;;3.63;2.00;;;15.30;99.90;;;;;;5012413;28;20049;-85
2021/04/07 10:11:37;;;;;;;2.85;2.00;;;17.60;99.90;;;;;;5011921;28;20443;-85
2021/04/07 10:14:03;;;;;;;3.25;1.95;;;21.70;99.90;;;;;;4994742;28;20018;-86
2021/04/07 10:16:34;;;;;;;3.72;1.90;;;23.50;99.90;;;;;;5012372;28;20022;-85
2021/04/07 10:19:04;;;;;;;2.88;2.10;;;20.20;99.90;;;;;;5011245;28;20088;-85
2021/04/07 10:21:30;;;;;;;4.45;2.90;;;20.80;99.90;;;;;;5012247;28;20439;-86
2021/04/07 10:23:58;;;;;;;4.05;2.50;;;22.90;99.90;;;;;;5012324;28;20053;-86
2021/04/07 10:26:24;;;;;;;4.53;2.38;;;25.10;99.90;;;;;;5011759;28;20365;-86
2021/04/07 10:28:56;;;;;;;3.28;2.00;;;26.60;99.90;;;;;;5012269;28;20108;-86
2021/04/07 10:31:23;;;;;;;2.40;2.20;;;24.80;99.90;;;;;;5012342;28;20026;-86
2021/04/07 10:33:49;;;;;;;4.10;2.35;;;25.60;99.90;;;;;;4993235;28;20054;-86
2021/04/07 10:36:14;;;;;;;3.33;2.20;;;20.50;99.90;;;;;;4994372;28;20057;-86
2021/04/07 10:38:40;;;;;;;3.33;1.92;;;18.70;99.90;;;;;;5011982;28;20404;-86
2021/04/07 10:41:06;;;;;;;2.80;1.77;;;23.90;99.90;;;;;;5011819;28;20033;-86
2021/04/07 10:43:34;;;;;;;3.63;2.20;;;26.00;99.90;;;;;;5012108;28;20018;-86
2021/04/07 10:46:02;;;;;;;3.55;2.20;;;25.30;99.90;;;;;;5012062;28;20523;-86
2021/04/07 10:48:28;;;;;;;3.35;2.08;;;22.90;99.90;;;;;;4993072;28;20030;-86
2021/04/07 10:50:56;;;;;;;4.57;2.53;;;25.40;99.90;;;;;;5014216;28;20033;-86
2021/04/07 10:53:38;;;;;;;6.03;2.30;;;23.60;99.90;;;;;;5015470;28;20037;-86
2021/04/07 10:56:19;;;;;;;2.17;1.98;;;22.50;99.90;;;;;;5015392;28;20092;-86
2021/04/07 10:58:55;;;;;;;2.25;1.80;;;24.40;99.90;;;;;;5015304;28;20022;-86
2021/04/07 11:01:37;;;;;;;3.08;1.92;;;25.30;99.90;;;;;;5015357;28;20125;-86
2021/04/07 11:04:19;;;;;;;3.50;2.25;;;24.90;99.90;;;;;;4996211;28;20057;-87
2021/04/07 11:06:49;;;;;;;3.63;2.30;;;25.70;99.90;;;;;;5015420;28;20390;-86
2021/04/07 11:09:15;;;;;;;5.32;2.42;;;25.70;99.90;;;;;;4997404;28;20491;-86
2021/04/07 11:11:42;;;;;;;3.08;2.60;;;24.60;99.90;;;;;;5014753;28;20102;-87
2021/04/07 11:14:09;;;;;;;2.63;2.40;;;18.20;99.90;;;;;;5015228;28;20034;-86
2021/04/07 11:16:35;;;;;;;3.22;2.33;;;16.20;99.90;;;;;;5015309;28;20020;-86
2021/04/07 11:19:01;;;;;;;4.35;2.28;;;15.10;99.90;;;;;;4994379;28;20030;-86
2021/04/07 11:21:27;;;;;;;4.28;2.05;;;17.70;99.90;;;;;;5015257;28;20061;-86
2021/04/07 11:23:52;;;;;;;4.75;2.30;;;21.90;99.90;;;;;;4997296;28;20054;-86
2021/04/07 11:26:19;;;;;;;6.53;2.17;;;22.60;99.90;;;;;;4997021;28;20053;-86
2021/04/07 11:28:45;;;;;;;2.83;1.83;;;21.90;99.90;;;;;;5014884;28;20025;-86
2021/04/07 11:31:33;;;;;;;4.28;2.03;;;23.50;99.90;;;;;;4997186;28;20105;-85
2021/04/07 11:34:02;;;;;;;3.20;1.95;;;19.80;99.90;;;;;;5013547;28;20029;-84
2021/04/07 11:39:22;;;;;;;3.25;1.90;;;26.10;99.90;;;;;;5014317;28;20030;-87
2021/04/07 11:46:35;;;;;;;4.07;2.20;;;27.90;99.90;;;;;;5014669;28;20398;-87
2021/04/07 11:49:05;;;;;;;4.95;1.80;;;24.30;99.90;;;;;;5011803;28;20053;-87
2021/04/07 11:51:33;;;;;;;2.58;1.90;;;25.50;99.90;;;;;;4996596;28;20025;-87
2021/04/07 11:53:59;;;;;;;4.25;1.70;;;24.00;99.90;;;;;;5014225;28;20025;-86
2021/04/07 11:56:24;;;;;;;4.80;1.80;;;17.50;99.90;;;;;;5014277;28;20053;-87
2021/04/07 11:58:50;;;;;;;3.08;1.83;;;17.30;99.90;;;;;;5014270;28;20049;-87
2021/04/07 12:01:15;;;;;;;2.35;1.92;;;24.70;99.90;;;;;;5013763;28;20101;-87
2021/04/07 12:03:43;;;;;;;2.28;1.98;;;24.00;99.90;;;;;;5012365;28;20088;-86
2021/04/07 12:06:09;;;;;;;3.17;1.70;;;20.40;99.90;;;;;;4996549;28;20135;-87
2021/04/07 12:08:35;;;;;;;3.05;1.80;;;22.40;99.90;;;;;;5013963;28;20022;-86
2021/04/07 12:11:00;;;;;;;2.42;1.80;;;23.10;99.90;;;;;;5013992;28;20026;-86
2021/04/07 12:13:29;;;;;;;3.22;1.83;;;26.60;99.90;;;;;;5014123;28;20022;-87
2021/04/07 12:15:56;;;;;;;61.95;33.22;;;27.90;99.90;;;;;;5013997;28;20022;-86
2021/04/07 12:18:22;;;;;;;2.67;2.10;;;29.20;99.90;;;;;;5010838;28;20033;-87
2021/04/07 12:20:48;;;;;;;2.72;1.92;;;25.40;99.90;;;;;;5014137;28;20440;-87
2021/04/07 12:23:14;;;;;;;23.00;14.32;;;25.30;99.90;;;;;;4995823;28;20026;-87
2021/04/07 12:25:39;;;;;;;49.28;29.58;;;27.40;99.90;;;;;;5013858;28;20068;-87
2021/04/07 12:28:07;;;;;;;6.95;3.90;;;26.90;99.90;;;;;;4996118;28;20026;-87
2021/04/07 12:30:46;;;;;;;27.55;18.42;;;25.00;99.90;;;;;;5013816;28;20041;-87
2021/04/07 12:33:16;;;;;;;7.78;5.15;;;24.90;99.90;;;;;;5013325;28;20030;-87
2021/04/07 12:35:41;;;;;;;3.25;2.03;;;27.30;99.90;;;;;;5013600;28;20025;-87
2021/04/07 12:38:07;;;;;;;3.47;2.30;;;26.10;99.90;;;;;;5013137;28;20034;-87
2021/04/07 12:40:33;;;;;;;3.70;1.90;;;28.30;99.90;;;;;;5013671;28;20033;-87
2021/04/07 12:42:58;;;;;;;4.22;2.13;;;28.00;99.90;;;;;;4995846;28;20029;-87
2021/04/07 12:45:24;;;;;;;3.40;2.65;;;25.40;99.90;;;;;;4995053;28;20168;-87
2021/04/07 12:47:50;;;;;;;4.13;1.95;;;25.60;99.90;;;;;;5013130;28;20041;-87
2021/04/07 12:50:15;;;;;;;4.40;2.03;;;25.40;99.90;;;;;;5013106;28;20025;-87
2021/04/07 12:52:41;;;;;;;3.17;1.83;;;26.90;99.90;;;;;;5013177;28;20370;-87
2021/04/07 12:55:07;;;;;;;2.72;1.80;;;27.30;99.90;;;;;;4995602;28;20053;-87
2021/04/07 12:57:32;;;;;;;2.97;1.70;;;27.80;99.90;;;;;;5013387;28;20390;-87
2021/04/07 12:59:59;;;;;;;1.95;1.60;;;26.30;99.90;;;;;;5013256;28;20024;-87
2021/04/07 13:02:25;;;;;;;2.90;1.60;;;25.10;99.90;;;;;;4994078;28;20476;-87
2021/04/07 13:04:51;;;;;;;2.20;1.30;;;24.70;99.90;;;;;;5012212;28;20030;-87